»·PEaware :: KFA4259 KSEA-CYLW

KFA4259 :: KSEA-CYLW

FLIGHT INFORMATION

Flight Status: Arrived
Operator:
Kingfisher Airlines
More flights by this operator :: More flights under this callsign
Pilot: Jeff S. (20204)
Aircraft: BOEING 727-200
(B722)
More flights by this aircraft type
Origin: KSEA Seattle-Tacoma Intl
United States
Destination: CYLW Kelowna
Canada
More flights between these airports :: More routes between these airports
Route: +MOUNT9 YDC PIGLU3
File this flight plan on PilotEdge
Remarks:
Altitude:
(Current/Filed)
24,000ft
Speed:
(Current/Filed)
300kts
Departed: 18-Dec-18 09:02 PM
Arrived: 18-Dec-18 09:47 PM
Distance/Time
Traveled:
190nm/0:45
Distance/Time
To Go:
Arrived

Flight Plot

Page will automatically refresh every two minutes.

Flight plan parsing failed; only flown route is shown


Map Options




Map Legend


Flown Route
Filed Route
Departure Airport
Arrival Airport
Navaid (VOR, NDB)
Fix

Horizontal Profiles

Position Reports

Time Latitude Longitude Heading Altitude Ground
Speed
18-Dec-18 20:21 47.462481 -122.300066 0 438ft 0kts
18-Dec-18 20:22 47.462481 -122.300066 0 438ft 0kts
18-Dec-18 20:23 47.462481 -122.300066 0 438ft 0kts
18-Dec-18 20:24 47.462481 -122.300066 0 438ft 0kts
18-Dec-18 20:25 47.462481 -122.300066 0 438ft 0kts
18-Dec-18 20:26 47.462481 -122.300066 0 438ft 0kts
18-Dec-18 20:27 47.462481 -122.300066 0 438ft 0kts
18-Dec-18 20:28 47.462481 -122.300066 0 438ft 0kts
18-Dec-18 20:29 47.462481 -122.300066 0 438ft 0kts
18-Dec-18 20:30 47.462481 -122.300066 0 438ft 0kts
18-Dec-18 20:31 47.462481 -122.300066 0 438ft 0kts
18-Dec-18 20:32 47.462481 -122.300066 0 438ft 0kts
18-Dec-18 20:33 47.462481 -122.300066 0 438ft 0kts
18-Dec-18 20:34 47.462481 -122.300066 0 438ft 0kts
18-Dec-18 20:35 47.462481 -122.300066 0 438ft 0kts
18-Dec-18 20:36 47.462481 -122.300066 0 438ft 0kts
18-Dec-18 20:37 47.462481 -122.300066 0 438ft 0kts
18-Dec-18 20:38 47.462481 -122.300066 0 438ft 0kts
18-Dec-18 20:39 47.462481 -122.300066 0 438ft 0kts
18-Dec-18 20:40 47.462481 -122.300066 0 438ft 0kts
18-Dec-18 20:41 47.462481 -122.300066 0 438ft 0kts
18-Dec-18 20:42 47.462481 -122.300066 0 438ft 0kts
18-Dec-18 20:43 47.462469 -122.300066 0 438ft 1kts
18-Dec-18 20:44 47.461948 -122.299796 317 438ft 2kts
18-Dec-18 20:45 47.461704 -122.299036 271 438ft 0kts
18-Dec-18 20:46 47.461704 -122.298952 269 438ft 0kts
18-Dec-18 20:47 47.461704 -122.298952 269 438ft 0kts
18-Dec-18 20:48 47.461704 -122.298952 269 438ft 0kts
18-Dec-18 20:49 47.461704 -122.298952 269 438ft 0kts
18-Dec-18 20:50 47.461704 -122.298952 269 438ft 0kts
18-Dec-18 20:51 47.461704 -122.298952 269 438ft 0kts
18-Dec-18 20:52 47.461704 -122.298952 269 438ft 0kts
18-Dec-18 20:53 47.461716 -122.302018 282 438ft 11kts
18-Dec-18 20:54 47.461784 -122.303618 270 438ft 0kts
18-Dec-18 20:55 47.462041 -122.305176 325 438ft 11kts
18-Dec-18 20:56 47.463504 -122.306209 310 438ft 0kts
18-Dec-18 20:57 47.463504 -122.306209 310 438ft 0kts
18-Dec-18 20:58 47.463504 -122.306209 310 438ft 0kts
18-Dec-18 20:59 47.463634 -122.306522 292 438ft 8kts
18-Dec-18 21:00 47.462597 -122.307732 181 438ft 15kts
18-Dec-18 21:01 47.428863 -122.309009 181 1652ft 167kts
18-Dec-18 21:02 47.380163 -122.309588 183 3901ft 197kts
18-Dec-18 21:03 47.334406 -122.278387 102 5737ft 231kts
18-Dec-18 21:04 47.351243 -122.193570 18 8946ft 230kts
18-Dec-18 21:05 47.408885 -122.155828 23 11963ft 263kts
18-Dec-18 21:06 47.470093 -122.103182 22 14696ft 295kts
18-Dec-18 21:07 47.546312 -122.036826 23 16795ft 358kts
18-Dec-18 21:08 47.640434 -121.955050 22 19295ft 403kts
18-Dec-18 21:09 47.731718 -121.875282 22 21872ft 422kts
18-Dec-18 21:10 47.822244 -121.795875 21 23014ft 437kts
18-Dec-18 21:11 47.923219 -121.706938 22 23009ft 475kts
18-Dec-18 21:12 48.035732 -121.607248 23 23008ft 508kts
18-Dec-18 21:13 48.118689 -121.533410 23 23008ft 527kts
18-Dec-18 21:14 48.214369 -121.447895 23 23004ft 532kts
18-Dec-18 21:15 48.319940 -121.353148 23 23005ft 537kts
18-Dec-18 21:16 48.415658 -121.266819 24 22970ft 540kts
18-Dec-18 21:17 48.512581 -121.179041 24 22923ft 544kts
18-Dec-18 21:18 48.613333 -121.087352 24 22923ft 545kts
18-Dec-18 21:19 48.713097 -120.996150 24 22925ft 545kts
18-Dec-18 21:20 48.790322 -120.925244 24 22924ft 545kts
18-Dec-18 21:21 48.893822 -120.829827 24 22925ft 545kts
18-Dec-18 21:22 49.008197 -120.723882 25 22926ft 545kts
18-Dec-18 21:23 49.100476 -120.637975 26 22903ft 546kts
18-Dec-18 21:24 49.188743 -120.555338 26 22868ft 542kts
18-Dec-18 21:25 49.271950 -120.477026 25 23368ft 482kts
18-Dec-18 21:26 49.350126 -120.403333 25 23313ft 434kts
18-Dec-18 21:27 49.411189 -120.337506 30 22183ft 427kts
18-Dec-18 21:28 49.477057 -120.262231 32 20922ft 420kts
18-Dec-18 21:29 49.541932 -120.186141 31 19468ft 353kts
18-Dec-18 21:30 49.609525 -120.106878 32 15760ft 338kts
18-Dec-18 21:31 49.682416 -120.020721 31 12797ft 281kts
18-Dec-18 21:32 49.744739 -119.947138 31 12291ft 262kts
18-Dec-18 21:33 49.806103 -119.874190 33 9914ft 266kts
18-Dec-18 21:34 49.867621 -119.830791 351 8470ft 230kts
18-Dec-18 21:36 49.916934 -119.835797 346 7971ft 203kts
18-Dec-18 21:37 49.956273 -119.787435 78 8014ft 248kts
18-Dec-18 21:38 49.951836 -119.698082 135 8000ft 249kts
18-Dec-18 21:39 49.893309 -119.659519 175 7978ft 239kts
18-Dec-18 21:40 49.832951 -119.645173 174 6159ft 247kts
18-Dec-18 21:41 49.789355 -119.594620 100 3484ft 231kts
18-Dec-18 21:42 49.805308 -119.517387 54 2489ft 222kts
18-Dec-18 21:43 49.841177 -119.464998 34 3211ft 215kts
18-Dec-18 21:44 49.866446 -119.406114 64 3522ft 200kts
18-Dec-18 21:45 49.896964 -119.369854 356 2817ft 168kts
18-Dec-18 21:46 49.932184 -119.374573 356 1827ft 138kts
18-Dec-18 21:47 49.957506 -119.378032 352 1421ft 20kts
18-Dec-18 21:48 49.959608 -119.379735 354 1421ft 21kts
18-Dec-18 21:49 49.962361 -119.380100 354 1421ft 0kts
18-Dec-18 21:50 49.966104 -119.380880 322 1421ft 11kts
18-Dec-18 21:51 49.966284 -119.381433 115 1421ft 0kts
18-Dec-18 21:52 49.966284 -119.381433 115 1421ft 0kts
18-Dec-18 21:53 49.966284 -119.381433 115 1421ft 0kts
18-Dec-18 21:53 49.966284 -119.381433 115 1421ft 0kts
18-Dec-18 21:54 49.966284 -119.381433 115 1421ft 0kts
18-Dec-18 21:56 49.966284 -119.381433 115 1421ft 0kts
18-Dec-18 21:56 49.966284 -119.381433 115 1421ft 0kts
18-Dec-18 21:57 49.966284 -119.381433 115 1421ft 0kts
18-Dec-18 21:59 49.966284 -119.381433 115 1421ft 0kts
18-Dec-18 21:59 49.966284 -119.381433 115 1421ft 0kts
18-Dec-18 22:01 49.966284 -119.381433 115 1421ft 0kts

Navigation Log

Ident Type
Flight plan parsing failed, navigation log unavailable